Time;durP1;ratioP1;P1;durP2;ratioP2;P2;SDS_P1;SDS_P2;PMS_P1;PMS_P2;Temp;Humidity;BMP_temperature;BMP_pressure;BME280_temperature;BME280_humidity;BME280_pressure;Samples;Min_cycle;Max_cycle;Signal;HPM_P1;HPM_P2
2022/11/25 05:05:58;;;;;;;5.82;4.80;;;2.30;99.90;;;;;;4937704;29;20205;-71
2022/11/25 05:08:24;;;;;;;5.17;4.37;;;2.30;99.90;;;;;;4935954;29;20648;-71
2022/11/25 05:10:49;;;;;;;3.40;3.20;;;2.30;99.90;;;;;;4936308;29;20569;-71
2022/11/25 05:13:15;;;;;;;6.57;3.80;;;2.30;99.90;;;;;;4935590;29;20193;-70
2022/11/25 05:15:42;;;;;;;5.90;4.70;;;2.30;99.90;;;;;;4936457;29;20212;-71
2022/11/25 05:18:07;;;;;;;4.13;3.83;;;2.30;99.90;;;;;;4939857;29;20406;-72
2022/11/25 05:20:33;;;;;;;6.90;3.60;;;2.30;99.90;;;;;;4938261;29;20226;-71
2022/11/25 05:22:59;;;;;;;4.83;3.87;;;2.30;99.90;;;;;;4938926;29;20239;-71
2022/11/25 05:25:25;;;;;;;4.17;3.77;;;2.30;99.90;;;;;;4939858;29;20205;-71
2022/11/25 05:27:51;;;;;;;5.35;3.30;;;2.30;99.90;;;;;;4939523;29;20184;-71
2022/11/25 05:30:17;;;;;;;4.47;4.00;;;2.30;99.90;;;;;;4939013;29;20609;-71
2022/11/25 05:32:43;;;;;;;4.17;3.77;;;2.20;99.90;;;;;;4939100;29;20229;-72
2022/11/25 05:35:09;;;;;;;3.83;3.53;;;2.20;99.90;;;;;;4936946;29;20197;-71
2022/11/25 05:37:34;;;;;;;3.67;3.37;;;2.20;99.90;;;;;;4939379;29;20177;-72
2022/11/25 05:40:00;;;;;;;3.40;3.10;;;2.20;99.90;;;;;;4939282;29;20182;-71
2022/11/25 05:42:28;;;;;;;5.47;3.70;;;2.20;99.90;;;;;;4939307;29;20178;-70
2022/11/25 05:44:54;;;;;;;9.20;3.10;;;2.20;99.90;;;;;;4939009;29;20300;-70
2022/11/25 05:47:19;;;;;;;5.10;3.00;;;2.30;99.90;;;;;;4939070;29;20684;-69
2022/11/25 05:49:45;;;;;;;4.10;3.70;;;2.30;99.90;;;;;;4938401;29;20209;-68
2022/11/25 05:52:10;;;;;;;4.00;3.60;;;2.30;99.90;;;;;;4938928;29;20181;-69
2022/11/25 05:54:36;;;;;;;3.30;3.03;;;2.40;99.90;;;;;;4938712;29;20185;-68
2022/11/25 05:57:02;;;;;;;7.33;4.03;;;2.40;99.90;;;;;;4939055;29;20165;-70
2022/11/25 05:59:27;;;;;;;5.00;4.50;;;2.40;99.90;;;;;;4938851;29;20174;-70
2022/11/25 06:01:53;;;;;;;4.30;3.90;;;2.50;99.90;;;;;;4939062;29;20478;-68
2022/11/25 06:04:18;;;;;;;4.87;3.13;;;2.50;99.90;;;;;;4936971;29;20197;-69
2022/11/25 06:06:44;;;;;;;4.57;3.47;;;2.50;99.90;;;;;;4938640;29;20443;-69
2022/11/25 06:09:09;;;;;;;2.53;2.33;;;2.50;99.90;;;;;;4938895;29;20205;-68
2022/11/25 06:11:35;;;;;;;3.40;3.20;;;2.40;99.90;;;;;;4938830;29;20554;-68
2022/11/25 06:14:01;;;;;;;3.23;3.03;;;2.50;99.90;;;;;;4938023;29;20279;-69
2022/11/25 06:16:27;;;;;;;3.53;2.93;;;2.40;99.90;;;;;;4938347;29;20185;-70
2022/11/25 06:18:53;;;;;;;2.60;2.40;;;2.40;99.90;;;;;;4938334;29;20577;-68
2022/11/25 06:21:19;;;;;;;3.10;2.67;;;2.40;99.90;;;;;;4938895;29;20180;-71
2022/11/25 06:23:45;;;;;;;3.83;3.33;;;2.40;99.90;;;;;;4938186;29;20201;-68
2022/11/25 06:26:16;;;;;;;4.33;3.20;;;2.40;99.90;;;;;;4938629;29;20256;-68
2022/11/25 06:28:42;;;;;;;3.53;3.03;;;2.40;99.90;;;;;;4934694;29;20434;-67
2022/11/25 06:31:11;;;;;;;3.10;2.80;;;2.40;99.90;;;;;;4939078;29;20194;-67
2022/11/25 06:33:37;;;;;;;3.78;3.25;;;2.30;99.90;;;;;;4937381;29;20288;-68
2022/11/25 06:36:05;;;;;;;4.40;4.00;;;2.40;99.90;;;;;;4937953;29;20178;-63
2022/11/25 06:38:30;;;;;;;3.83;3.53;;;2.30;99.90;;;;;;4929713;29;20205;-67
2022/11/25 06:41:04;;;;;;;3.73;3.40;;;2.30;99.90;;;;;;4937587;29;20212;-69
2022/11/25 06:43:31;;;;;;;6.25;3.35;;;2.30;99.90;;;;;;4937530;29;20189;-68
2022/11/25 06:46:08;;;;;;;3.95;3.65;;;2.30;99.90;;;;;;4937128;29;20537;-70
2022/11/25 06:48:35;;;;;;;5.28;3.38;;;2.30;99.90;;;;;;4937700;29;20627;-70
2022/11/25 06:51:04;;;;;;;3.80;3.50;;;2.30;99.90;;;;;;4937974;29;20522;-69
2022/11/25 06:53:30;;;;;;;3.70;2.97;;;2.30;99.90;;;;;;4937633;29;20201;-65
2022/11/25 06:56:11;;;;;;;4.15;3.75;;;2.30;99.90;;;;;;4937388;29;20661;-67
2022/11/25 06:58:38;;;;;;;5.57;3.75;;;2.30;99.90;;;;;;4936425;29;20244;-65
2022/11/25 07:01:14;;;;;;;3.78;3.55;;;2.30;99.90;;;;;;4936989;29;20204;-66
2022/11/25 07:03:40;;;;;;;4.88;3.55;;;2.30;99.90;;;;;;4936991;29;20208;-66
2022/11/25 07:06:06;;;;;;;3.80;3.50;;;2.30;99.90;;;;;;4935368;29;20200;-67
2022/11/25 07:08:31;;;;;;;4.10;3.70;;;2.30;99.90;;;;;;4918445;29;20313;-65
2022/11/25 07:11:17;;;;;;;5.77;4.10;;;2.30;99.90;;;;;;4917063;29;20195;-64
2022/11/25 07:13:43;;;;;;;7.57;4.55;;;2.30;99.90;;;;;;4926853;29;20209;-66
2022/11/25 07:16:10;;;;;;;4.20;3.55;;;2.40;99.90;;;;;;4937553;29;20601;-65
2022/11/25 07:18:37;;;;;;;5.70;4.28;;;2.40;99.90;;;;;;4937511;29;20169;-66
2022/11/25 07:21:07;;;;;;;6.15;5.15;;;2.50;99.90;;;;;;4937010;29;20210;-66
2022/11/25 07:23:33;;;;;;;7.90;4.07;;;2.60;99.90;;;;;;4936862;29;20632;-65
2022/11/25 07:26:05;;;;;;;5.63;3.45;;;2.80;99.90;;;;;;4937326;29;20177;-65
2022/11/25 07:28:30;;;;;;;8.90;4.97;;;2.90;99.90;;;;;;4937753;29;20193;-64
2022/11/25 07:31:18;;;;;;;5.00;4.60;;;3.10;99.90;;;;;;4937234;29;20182;-65
2022/11/25 07:33:44;;;;;;;6.45;4.72;;;3.30;99.90;;;;;;4935412;29;20197;-66
2022/11/25 07:36:12;;;;;;;5.03;4.53;;;3.50;99.90;;;;;;4934913;29;20189;-66
2022/11/25 07:38:39;;;;;;;4.40;4.00;;;3.60;99.90;;;;;;4935963;29;20173;-66
2022/11/25 07:41:10;;;;;;;5.05;4.60;;;3.70;99.90;;;;;;4937141;29;20538;-65
2022/11/25 07:43:35;;;;;;;6.18;4.90;;;3.80;99.90;;;;;;4936829;29;20170;-66
2022/11/25 07:46:34;;;;;;;6.87;4.70;;;3.90;99.90;;;;;;4937041;29;20175;-66
2022/11/25 07:49:06;;;;;;;4.55;4.15;;;4.00;99.90;;;;;;4929471;29;20909;-66
2022/11/25 07:51:40;;;;;;;5.00;4.60;;;4.00;99.90;;;;;;4936687;29;20186;-66
2022/11/25 07:54:08;;;;;;;5.63;4.05;;;4.10;99.90;;;;;;4936642;29;20213;-65
2022/11/25 07:56:35;;;;;;;3.70;3.40;;;4.20;99.90;;;;;;4936904;29;20185;-65
2022/11/25 07:59:02;;;;;;;5.65;4.28;;;4.30;99.90;;;;;;4936611;29;20651;-65
2022/11/25 08:01:27;;;;;;;4.95;3.92;;;4.40;99.90;;;;;;4936781;29;20228;-64
2022/11/25 08:03:54;;;;;;;4.07;3.53;;;4.50;99.90;;;;;;4936330;29;20693;-64
2022/11/25 08:06:23;;;;;;;4.05;3.75;;;4.50;99.90;;;;;;4936449;29;20228;-64
2022/11/25 08:08:49;;;;;;;8.68;4.63;;;4.60;99.90;;;;;;4936758;29;20540;-65
2022/11/25 08:11:20;;;;;;;4.40;3.97;;;4.60;99.90;;;;;;4936119;29;20189;-65
2022/11/25 08:13:47;;;;;;;5.57;3.60;;;4.60;99.90;;;;;;4935979;29;20284;-65
2022/11/25 08:16:15;;;;;;;4.68;3.92;;;4.60;99.90;;;;;;4932624;29;20261;-66
2022/11/25 08:18:41;;;;;;;7.30;4.47;;;4.60;99.90;;;;;;4933996;29;20742;-66
2022/11/25 08:21:09;;;;;;;4.88;4.40;;;4.60;99.90;;;;;;4936414;29;20197;-65
2022/11/25 08:23:36;;;;;;;5.18;4.38;;;4.60;99.90;;;;;;4935325;29;20536;-65
2022/11/25 08:26:12;;;;;;;9.82;4.38;;;4.50;99.90;;;;;;4936044;29;20181;-65
2022/11/25 08:28:40;;;;;;;4.25;3.85;;;4.60;99.90;;;;;;4936461;29;20190;-65
2022/11/25 08:31:12;;;;;;;5.60;5.07;;;4.60;99.90;;;;;;4936490;29;20186;-66
2022/11/25 08:33:38;;;;;;;4.65;4.25;;;4.60;99.90;;;;;;4936288;29;20203;-65
2022/11/25 08:36:05;;;;;;;8.60;6.20;;;4.60;99.90;;;;;;4941461;29;20668;-65
2022/11/25 08:38:31;;;;;;;6.32;4.38;;;4.70;99.90;;;;;;4938259;29;20249;-67
2022/11/25 08:40:57;;;;;;;8.07;5.22;;;4.70;99.90;;;;;;4938923;29;20171;-66
2022/11/25 08:43:23;;;;;;;4.10;3.70;;;4.80;99.90;;;;;;4936285;29;20657;-67
2022/11/25 08:45:50;;;;;;;5.40;4.90;;;4.90;99.90;;;;;;4936320;29;20568;-63
2022/11/25 08:48:18;;;;;;;4.72;4.25;;;4.90;99.90;;;;;;4935938;29;20186;-65
2022/11/25 08:50:48;;;;;;;6.18;4.63;;;4.90;99.90;;;;;;4935574;29;20551;-64
2022/11/25 08:53:14;;;;;;;3.92;3.45;;;5.00;99.90;;;;;;4935685;29;20203;-64
2022/11/25 08:55:40;;;;;;;5.50;5.00;;;5.00;99.90;;;;;;4936099;29;20208;-64
2022/11/25 08:58:08;;;;;;;4.73;3.00;;;5.00;99.90;;;;;;4936491;29;20401;-64
2022/11/25 09:00:36;;;;;;;3.88;3.58;;;5.10;99.90;;;;;;4936386;29;20180;-64
2022/11/25 09:03:01;;;;;;;4.88;3.75;;;5.20;99.90;;;;;;4935788;29;20642;-64
2022/11/25 09:05:34;;;;;;;5.60;4.10;;;5.40;99.90;;;;;;4935827;29;20214;-64
2022/11/25 09:08:00;;;;;;;4.10;3.65;;;5.50;99.90;;;;;;4936211;29;20327;-65
2022/11/25 09:10:26;;;;;;;5.20;3.60;;;5.70;99.90;;;;;;4935862;29;20177;-65
2022/11/25 09:12:52;;;;;;;4.60;4.20;;;5.80;99.90;;;;;;4935489;29;20214;-64
2022/11/25 09:15:17;;;;;;;5.13;4.43;;;5.80;99.90;;;;;;4935811;29;20201;-66
2022/11/25 09:17:43;;;;;;;6.97;6.27;;;5.90;99.90;;;;;;4936201;29;20529;-66
2022/11/25 09:20:09;;;;;;;6.43;5.93;;;6.00;99.90;;;;;;4936283;29;20173;-66
2022/11/25 09:22:35;;;;;;;8.77;6.37;;;6.20;99.90;;;;;;4935791;29;20581;-66
2022/11/25 09:25:01;;;;;;;8.70;6.75;;;6.60;99.90;;;;;;4935539;29;20944;-68
2022/11/25 09:27:26;;;;;;;7.40;6.50;;;7.20;99.90;;;;;;4935879;29;20185;-64
2022/11/25 09:29:52;;;;;;;7.87;5.20;;;7.60;99.90;;;;;;4935854;29;20657;-65
2022/11/25 09:32:17;;;;;;;5.70;4.83;;;7.80;99.90;;;;;;4935574;29;20622;-68
2022/11/25 09:34:43;;;;;;;5.90;4.40;;;8.10;99.90;;;;;;4935533;29;20198;-66
2022/11/25 09:37:10;;;;;;;3.43;2.87;;;8.30;99.90;;;;;;4935550;29;20260;-66
2022/11/25 09:39:36;;;;;;;5.53;3.40;;;8.60;99.90;;;;;;4934433;29;20185;-66
2022/11/25 09:48:14;;;;;;;3.40;3.10;;;9.70;99.90;;;;;;4936094;29;20713;-66
2022/11/25 09:51:10;;;;;;;4.00;2.83;;;10.00;99.90;;;;;;4934510;29;20447;-66
2022/11/25 09:53:52;;;;;;;4.70;2.93;;;10.20;99.90;;;;;;4934313;29;21066;-65
2022/11/25 09:56:24;;;;;;;3.13;2.93;;;10.30;99.90;;;;;;4935845;29;20412;-68
2022/11/25 09:58:56;;;;;;;5.83;3.27;;;10.30;99.90;;;;;;4935820;29;20411;-65
2022/11/25 10:01:25;;;;;;;3.80;3.20;;;10.30;99.90;;;;;;4935727;29;20494;-65
2022/11/25 10:04:03;;;;;;;5.03;4.57;;;10.10;99.90;;;;;;4938773;29;20799;-65
2022/11/25 10:06:33;;;;;;;4.77;4.30;;;10.00;99.90;;;;;;4938714;29;20277;-65
2022/11/25 10:09:16;;;;;;;4.50;3.57;;;9.90;99.90;;;;;;4938684;29;20470;-66
2022/11/25 10:11:52;;;;;;;4.50;3.42;;;9.90;99.90;;;;;;4938991;29;20423;-65
2022/11/25 10:14:27;;;;;;;3.65;3.33;;;9.80;99.90;;;;;;4938417;29;20211;-63
2022/11/25 10:17:16;;;;;;;5.75;3.90;;;9.80;99.90;;;;;;4938821;29;20158;-66
2022/11/25 10:20:00;;;;;;;8.45;4.70;;;9.90;99.90;;;;;;4919611;29;20273;-65
2022/11/25 10:22:31;;;;;;;4.55;3.35;;;9.90;99.90;;;;;;4930005;29;20517;-66
2022/11/25 10:25:00;;;;;;;2.90;2.70;;;9.80;99.90;;;;;;4939046;29;20276;-65
2022/11/25 10:27:37;;;;;;;3.88;3.25;;;9.80;99.90;;;;;;4938503;29;20668;-67
2022/11/25 10:30:20;;;;;;;2.85;2.67;;;9.80;99.90;;;;;;4938978;29;20625;-64
2022/11/25 10:33:00;;;;;;;5.18;3.22;;;9.90;99.90;;;;;;4938557;29;20207;-66
2022/11/25 10:35:31;;;;;;;3.38;2.70;;;9.70;99.90;;;;;;4939273;29;20202;-65
2022/11/25 10:38:00;;;;;;;4.40;2.45;;;9.60;99.90;;;;;;4938684;29;20168;-65
2022/11/25 10:40:26;;;;;;;3.83;2.95;;;9.60;99.90;;;;;;4938238;29;20582;-64
2022/11/25 10:42:52;;;;;;;2.60;2.50;;;9.50;99.90;;;;;;4937836;29;20181;-65
2022/11/25 10:45:29;;;;;;;4.17;2.93;;;9.60;99.90;;;;;;4936771;29;20449;-63
2022/11/25 10:48:16;;;;;;;3.22;2.92;;;9.60;99.90;;;;;;4936111;29;20227;-65
2022/11/25 10:51:15;;;;;;;4.40;2.80;;;9.60;99.90;;;;;;4936144;29;20590;-66
2022/11/25 10:53:41;;;;;;;3.42;2.80;;;9.70;99.90;;;;;;4935465;29;20217;-67
2022/11/25 10:56:16;;;;;;;2.70;2.50;;;9.70;99.90;;;;;;4935819;29;20216;-64
2022/11/25 10:58:42;;;;;;;5.32;3.40;;;9.80;99.90;;;;;;4936231;29;20348;-65
2022/11/25 11:01:17;;;;;;;4.17;2.50;;;9.80;99.90;;;;;;4937499;29;20181;-65
2022/11/25 11:03:45;;;;;;;4.15;2.70;;;9.80;99.90;;;;;;4937305;29;20256;-66
2022/11/25 11:06:35;;;;;;;3.75;2.88;;;9.90;99.90;;;;;;4937586;29;20217;-67
2022/11/25 11:09:01;;;;;;;4.47;2.75;;;9.90;99.90;;;;;;4938018;29;20272;-66
2022/11/25 11:11:26;;;;;;;5.47;3.60;;;10.00;99.90;;;;;;4937741;29;20654;-64
2022/11/25 11:14:12;;;;;;;4.37;2.70;;;10.00;99.90;;;;;;4936045;29;20898;-64
2022/11/25 11:16:44;;;;;;;3.95;3.40;;;10.10;99.90;;;;;;4937739;29;20209;-66
2022/11/25 11:19:28;;;;;;;3.75;3.45;;;10.10;99.90;;;;;;4936284;29;20668;-66
2022/11/25 11:21:55;;;;;;;4.70;3.33;;;10.20;99.90;;;;;;4937647;29;20543;-66
2022/11/25 11:24:36;;;;;;;3.30;3.00;;;10.30;99.90;;;;;;4937235;29;20557;-68
2022/11/25 11:27:18;;;;;;;4.32;3.92;;;10.30;99.90;;;;;;4937419;29;20186;-67
2022/11/25 11:29:43;;;;;;;3.03;2.83;;;10.20;99.90;;;;;;4937360;29;20182;-64
2022/11/25 11:32:22;;;;;;;3.13;2.83;;;10.20;99.90;;;;;;4937137;29;20183;-67
2022/11/25 11:35:07;;;;;;;3.90;3.50;;;10.10;99.90;;;;;;4935764;29;20199;-64
2022/11/25 11:37:42;;;;;;;4.10;3.45;;;10.00;99.90;;;;;;4937300;29;20194;-66
2022/11/25 11:40:30;;;;;;;4.55;3.85;;;9.80;99.90;;;;;;4937099;29;20201;-67
2022/11/25 11:43:04;;;;;;;4.10;3.80;;;9.70;99.90;;;;;;4936440;29;20297;-67
2022/11/25 11:45:40;;;;;;;3.92;3.58;;;9.60;99.90;;;;;;4937048;29;20207;-64
2022/11/25 11:48:44;;;;;;;5.22;3.53;;;9.50;99.90;;;;;;4937176;29;20181;-63
2022/11/25 11:51:32;;;;;;;3.60;3.30;;;9.50;99.90;;;;;;4913775;29;20188;-66
2022/11/25 11:54:30;;;;;;;5.63;4.07;;;9.50;99.90;;;;;;4935965;29;20214;-66
2022/11/25 11:57:01;;;;;;;7.10;5.00;;;9.50;99.90;;;;;;4901597;29;20422;-67
2022/11/25 11:59:52;;;;;;;5.53;5.03;;;9.60;99.90;;;;;;4935523;29;20388;-65
2022/11/25 12:02:20;;;;;;;7.75;4.28;;;9.60;99.90;;;;;;4931629;29;20177;-63
2022/11/25 12:05:04;;;;;;;4.97;4.43;;;9.70;99.90;;;;;;4936028;29;20200;-63
2022/11/25 12:07:54;;;;;;;5.03;3.55;;;9.70;99.90;;;;;;4936315;29;20191;-66
2022/11/25 12:10:44;;;;;;;3.88;3.58;;;9.70;99.90;;;;;;4936591;29;20734;-64
2022/11/25 12:13:31;;;;;;;4.07;3.78;;;9.70;99.90;;;;;;4934564;29;20208;-64
2022/11/25 12:15:57;;;;;;;3.22;3.03;;;9.60;99.90;;;;;;4936440;29;20188;-64
2022/11/25 12:18:37;;;;;;;4.07;3.50;;;9.60;99.90;;;;;;4936288;29;20170;-64
2022/11/25 12:21:26;;;;;;;10.10;3.35;;;9.50;99.90;;;;;;4936195;29;20222;-65
2022/11/25 12:24:27;;;;;;;3.58;3.28;;;9.50;99.90;;;;;;4930314;29;20202;-64
2022/11/25 12:27:26;;;;;;;3.20;2.67;;;9.50;99.90;;;;;;4934423;29;20274;-64
2022/11/25 12:30:12;;;;;;;3.88;3.58;;;9.50;99.90;;;;;;4935872;29;20173;-63
2022/11/25 12:32:56;;;;;;;3.63;3.13;;;9.40;99.90;;;;;;4935343;29;20187;-64
2022/11/25 12:35:24;;;;;;;3.25;2.75;;;9.40;99.90;;;;;;4933762;29;20197;-65
2022/11/25 12:38:18;;;;;;;6.18;3.80;;;9.30;99.90;;;;;;4934159;29;20257;-65
2022/11/25 12:40:53;;;;;;;6.25;3.65;;;9.30;99.90;;;;;;4934311;29;20225;-63
2022/11/25 12:43:41;;;;;;;9.25;4.07;;;9.20;99.90;;;;;;4934435;29;20549;-63
2022/11/25 12:46:28;;;;;;;4.55;4.07;;;9.20;99.90;;;;;;4935134;29;20191;-64
2022/11/25 12:48:56;;;;;;;4.32;3.92;;;9.10;99.90;;;;;;4935514;29;20232;-65
2022/11/25 12:52:07;;;;;;;4.88;4.07;;;9.10;99.90;;;;;;4936185;29;20173;-62
2022/11/25 12:54:57;;;;;;;7.07;4.47;;;9.00;99.90;;;;;;4935074;29;20229;-64
2022/11/25 12:57:50;;;;;;;4.53;3.95;;;9.00;99.90;;;;;;4936030;29;20165;-65
2022/11/25 13:00:20;;;;;;;5.28;4.75;;;8.90;99.90;;;;;;4936183;29;20499;-63
2022/11/25 13:02:51;;;;;;;5.85;3.40;;;8.90;99.90;;;;;;4935394;29;20948;-63
2022/11/25 13:05:48;;;;;;;6.65;3.75;;;8.80;99.90;;;;;;4935755;29;20205;-63
2022/11/25 13:08:29;;;;;;;4.47;3.83;;;8.80;99.90;;;;;;4936017;29;20173;-63
2022/11/25 13:11:38;;;;;;;4.80;4.07;;;8.80;99.90;;;;;;4935802;29;20177;-63
2022/11/25 13:14:24;;;;;;;12.23;4.22;;;8.70;99.90;;;;;;4935335;29;20209;-64
2022/11/25 13:16:52;;;;;;;4.30;4.00;;;8.70;99.90;;;;;;4935508;29;20181;-65
2022/11/25 13:19:18;;;;;;;4.55;3.20;;;8.60;99.90;;;;;;4935923;29;20268;-64
2022/11/25 13:22:05;;;;;;;4.93;4.50;;;8.70;99.90;;;;;;4935889;29;20281;-62
2022/11/25 13:24:39;;;;;;;6.10;4.63;;;8.70;99.90;;;;;;4934883;29;20204;-63
2022/11/25 13:27:05;;;;;;;5.13;4.63;;;8.60;99.90;;;;;;4934673;29;20185;-63
2022/11/25 13:29:30;;;;;;;3.28;3.08;;;8.60;99.90;;;;;;4935829;29;20177;-63
2022/11/25 13:31:57;;;;;;;7.93;5.93;;;8.60;99.90;;;;;;4935748;29;20189;-64
2022/11/25 13:34:29;;;;;;;9.57;4.57;;;8.60;99.90;;;;;;4935178;29;20233;-64
2022/11/25 13:37:00;;;;;;;4.70;4.18;;;8.60;99.90;;;;;;4936597;29;20208;-63
2022/11/25 13:39:36;;;;;;;5.55;3.80;;;8.70;99.90;;;;;;4939548;29;20181;-64
2022/11/25 13:42:25;;;;;;;7.47;3.95;;;8.70;99.90;;;;;;4939365;29;20173;-65
2022/11/25 13:44:57;;;;;;;8.57;4.20;;;8.80;99.90;;;;;;4938870;29;20196;-62
2022/11/25 13:47:38;;;;;;;5.78;4.45;;;8.90;99.90;;;;;;4938954;29;20165;-63
2022/11/25 13:50:21;;;;;;;4.72;4.03;;;9.00;99.90;;;;;;4939186;29;20182;-64
2022/11/25 13:52:56;;;;;;;4.35;4.05;;;9.10;99.90;;;;;;4938569;29;20671;-63
2022/11/25 13:55:31;;;;;;;5.32;3.63;;;9.10;99.90;;;;;;4939188;29;20189;-63
2022/11/25 13:58:09;;;;;;;4.97;2.92;;;9.10;99.90;;;;;;4938781;29;20189;-63
2022/11/25 14:00:34;;;;;;;4.63;3.72;;;9.20;99.90;;;;;;4939510;29;20200;-64
2022/11/25 14:03:18;;;;;;;5.53;4.93;;;9.20;99.90;;;;;;4938401;29;20258;-64
2022/11/25 14:06:02;;;;;;;4.80;4.22;;;9.30;99.90;;;;;;4938791;29;20288;-64
2022/11/25 14:09:04;;;;;;;6.85;6.13;;;9.40;99.90;;;;;;4939007;29;20201;-64
2022/11/25 14:11:48;;;;;;;5.20;4.63;;;9.40;99.90;;;;;;4938614;29;20681;-64
2022/11/25 14:14:16;;;;;;;6.38;5.53;;;9.50;99.90;;;;;;4938132;29;20225;-64
2022/11/25 14:17:00;;;;;;;3.17;2.85;;;9.50;99.90;;;;;;4938798;29;20181;-65
2022/11/25 14:19:59;;;;;;;2.88;2.67;;;9.40;99.90;;;;;;4938570;29;20169;-62
2022/11/25 14:22:58;;;;;;;3.30;2.90;;;9.40;99.90;;;;;;4938859;29;20205;-65
2022/11/25 14:25:29;;;;;;;7.18;3.05;;;9.40;99.90;;;;;;4938538;29;20185;-65
2022/11/25 14:28:33;;;;;;;3.25;2.95;;;9.40;99.90;;;;;;4938188;29;20193;-63
2022/11/25 14:31:05;;;;;;;5.07;3.30;;;9.30;99.90;;;;;;4938492;29;20636;-65
2022/11/25 14:33:43;;;;;;;2.88;2.65;;;9.30;99.90;;;;;;4937331;29;20205;-63
2022/11/25 14:36:16;;;;;;;3.05;2.50;;;9.30;99.90;;;;;;4937938;29;20204;-64
2022/11/25 14:39:13;;;;;;;4.25;3.25;;;9.40;99.90;;;;;;4937990;29;20193;-65
2022/11/25 14:42:04;;;;;;;3.05;2.45;;;9.40;99.90;;;;;;4937177;29;20212;-64
2022/11/25 14:44:56;;;;;;;3.50;2.40;;;9.40;99.90;;;;;;4932983;29;20267;-61
2022/11/25 14:47:27;;;;;;;7.47;2.72;;;9.50;99.90;;;;;;4930312;29;20185;-62
2022/11/25 14:49:55;;;;;;;3.20;2.90;;;9.50;99.90;;;;;;4936890;29;20188;-62
2022/11/25 14:52:25;;;;;;;3.95;3.55;;;9.60;99.90;;;;;;4937969;29;20178;-64
2022/11/25 14:54:54;;;;;;;3.30;3.00;;;9.60;99.90;;;;;;4937484;29;20201;-65
2022/11/25 14:57:30;;;;;;;3.40;3.20;;;9.50;99.90;;;;;;4937735;29;20265;-65
2022/11/25 15:00:01;;;;;;;3.20;2.72;;;9.60;99.90;;;;;;4937696;29;20181;-65
2022/11/25 15:02:33;;;;;;;7.75;4.53;;;9.60;99.90;;;;;;4936531;29;20786;-65
2022/11/25 15:05:15;;;;;;;2.80;2.30;;;9.60;99.90;;;;;;4937316;29;20209;-65
2022/11/25 15:07:43;;;;;;;2.80;2.22;;;9.60;99.90;;;;;;4935448;29;20179;-66
2022/11/25 15:10:36;;;;;;;7.35;2.78;;;9.60;99.90;;;;;;4937703;29;20251;-65
2022/11/25 15:13:28;;;;;;;3.05;2.42;;;9.60;99.90;;;;;;4937018;29;20205;-65
2022/11/25 15:15:56;;;;;;;4.93;2.22;;;9.50;99.90;;;;;;4930654;29;20186;-66
2022/11/25 15:18:24;;;;;;;2.40;2.20;;;9.50;99.90;;;;;;4936961;29;20535;-65
2022/11/25 15:20:56;;;;;;;3.15;2.63;;;9.50;99.90;;;;;;4937564;29;20188;-65
2022/11/25 15:23:33;;;;;;;2.47;2.28;;;9.50;99.90;;;;;;4936501;29;20174;-64
2022/11/25 15:26:00;;;;;;;6.57;2.95;;;9.50;99.90;;;;;;4936210;29;20264;-64
2022/11/25 15:28:32;;;;;;;2.03;1.90;;;9.50;99.90;;;;;;4936990;29;20189;-65
2022/11/25 15:30:59;;;;;;;3.47;1.88;;;9.50;99.90;;;;;;4937428;29;20417;-64
2022/11/25 15:33:27;;;;;;;2.83;2.17;;;9.50;99.90;;;;;;4936581;29;20275;-64
2022/11/25 15:35:53;;;;;;;2.75;2.53;;;9.40;99.90;;;;;;4937047;29;20177;-63
2022/11/25 15:38:37;;;;;;;3.90;2.43;;;9.40;99.90;;;;;;4936478;29;20177;-63
2022/11/25 15:41:05;;;;;;;1.40;1.30;;;9.40;99.90;;;;;;4935817;29;20413;-63
2022/11/25 15:43:33;;;;;;;2.55;2.35;;;9.40;99.90;;;;;;4934831;29;20209;-66
2022/11/25 15:46:04;;;;;;;2.08;1.83;;;9.40;99.90;;;;;;4936985;29;20326;-65
2022/11/25 15:48:38;;;;;;;4.65;2.10;;;9.40;99.90;;;;;;4936657;29;20558;-65
2022/11/25 15:51:24;;;;;;;3.13;2.72;;;9.40;99.90;;;;;;4936892;29;20184;-65
2022/11/25 15:54:20;;;;;;;4.55;2.33;;;9.40;99.90;;;;;;4935112;29;20213;-63
2022/11/25 15:56:52;;;;;;;4.13;2.22;;;9.40;99.90;;;;;;4936070;29;20207;-63
2022/11/25 15:59:39;;;;;;;9.68;3.78;;;9.30;99.90;;;;;;4936589;29;20173;-64
2022/11/25 16:02:35;;;;;;;2.60;2.40;;;9.30;99.90;;;;;;4936281;29;20594;-63
2022/11/25 16:05:13;;;;;;;1.95;1.73;;;9.30;99.90;;;;;;4933238;29;20216;-61
2022/11/25 16:07:50;;;;;;;5.30;2.10;;;9.30;99.90;;;;;;4936678;29;20205;-63
2022/11/25 16:10:16;;;;;;;4.05;2.40;;;9.20;99.90;;;;;;4936595;29;20196;-63
2022/11/25 16:12:42;;;;;;;6.80;2.70;;;9.20;99.90;;;;;;4935900;29;20181;-63
2022/11/25 16:15:17;;;;;;;3.30;2.13;;;9.20;99.90;;;;;;4935926;29;20429;-64
2022/11/25 16:17:43;;;;;;;3.08;2.83;;;9.20;99.90;;;;;;4936638;29;20181;-63
2022/11/25 16:20:19;;;;;;;5.70;2.30;;;9.20;99.90;;;;;;4934397;29;20533;-65
2022/11/25 16:22:45;;;;;;;2.10;1.90;;;9.10;99.90;;;;;;4934320;29;20828;-64
2022/11/25 16:25:14;;;;;;;2.58;2.35;;;9.20;99.90;;;;;;4935654;29;20217;-63
2022/11/25 16:27:40;;;;;;;3.08;2.28;;;9.10;99.90;;;;;;4933042;29;20229;-64
2022/11/25 16:30:05;;;;;;;3.80;2.15;;;9.10;99.90;;;;;;4935011;29;20173;-63
2022/11/25 16:32:32;;;;;;;2.43;2.23;;;9.00;99.90;;;;;;4934466;29;20260;-65
2022/11/25 16:35:13;;;;;;;2.85;2.00;;;9.00;99.90;;;;;;4933606;29;20201;-64
2022/11/25 16:37:39;;;;;;;2.40;2.05;;;9.00;99.90;;;;;;4935742;29;20181;-65
2022/11/25 16:40:05;;;;;;;2.00;1.90;;;9.00;99.90;;;;;;4935758;29;20173;-65
2022/11/25 16:42:31;;;;;;;2.20;2.00;;;9.00;99.90;;;;;;4935298;29;20173;-65
2022/11/25 16:44:59;;;;;;;2.40;2.20;;;9.00;99.90;;;;;;4935845;29;20200;-64
2022/11/25 16:47:25;;;;;;;2.45;1.98;;;9.00;99.90;;;;;;4936307;29;20256;-63
2022/11/25 16:49:51;;;;;;;2.33;2.13;;;9.00;99.90;;;;;;4936228;29;20203;-64
2022/11/25 16:52:17;;;;;;;8.95;4.03;;;9.00;99.90;;;;;;4936030;29;20499;-63
2022/11/25 16:54:43;;;;;;;3.83;3.00;;;9.00;99.90;;;;;;4935293;29;20208;-65
2022/11/25 16:57:17;;;;;;;2.40;2.10;;;9.00;99.90;;;;;;4936012;29;20182;-63
2022/11/25 16:59:44;;;;;;;4.07;2.83;;;9.00;99.90;;;;;;4936157;29;20441;-64
2022/11/25 17:02:17;;;;;;;3.35;2.60;;;9.00;99.90;;;;;;4935814;29;20185;-65
2022/11/25 17:04:43;;;;;;;3.65;3.35;;;9.00;99.90;;;;;;4935339;29;20201;-64
2022/11/25 17:07:12;;;;;;;3.13;2.83;;;9.00;99.90;;;;;;4936150;29;20634;-62
2022/11/25 17:09:37;;;;;;;7.40;3.35;;;9.00;99.90;;;;;;4936138;29;20786;-65
2022/11/25 17:12:06;;;;;;;5.50;4.40;;;9.00;99.90;;;;;;4937079;29;20195;-65
2022/11/25 17:14:34;;;;;;;4.65;3.40;;;9.00;99.90;;;;;;4938935;29;20469;-64
2022/11/25 17:17:01;;;;;;;5.20;3.97;;;9.00;99.90;;;;;;4939761;29;20173;-62
2022/11/25 17:19:26;;;;;;;4.65;3.80;;;8.90;99.90;;;;;;4939689;29;20174;-63
2022/11/25 17:21:52;;;;;;;4.20;3.90;;;8.90;99.90;;;;;;4939680;29;20637;-63
2022/11/25 17:24:20;;;;;;;4.30;3.83;;;8.90;99.90;;;;;;4938221;29;20197;-65
2022/11/25 17:26:56;;;;;;;4.30;3.40;;;8.90;99.90;;;;;;4939706;29;20185;-64
2022/11/25 17:29:34;;;;;;;4.00;3.65;;;8.90;99.90;;;;;;4939081;29;20390;-63
2022/11/25 17:32:00;;;;;;;4.35;3.95;;;8.80;99.90;;;;;;4939487;29;20642;-64
2022/11/25 17:34:26;;;;;;;6.35;4.40;;;8.90;99.90;;;;;;4938869;29;20571;-65
2022/11/25 17:36:52;;;;;;;5.03;3.97;;;8.80;99.90;;;;;;4939602;29;20257;-66
2022/11/25 17:39:17;;;;;;;8.13;3.80;;;8.90;99.90;;;;;;4939138;29;20177;-62
2022/11/25 17:41:47;;;;;;;6.47;3.80;;;8.90;99.90;;;;;;4939497;29;20205;-64
2022/11/25 17:44:26;;;;;;;6.93;4.32;;;8.90;99.90;;;;;;4938840;29;20224;-64
2022/11/25 17:46:53;;;;;;;4.80;4.35;;;8.80;99.90;;;;;;4939408;29;20178;-64
2022/11/25 17:49:19;;;;;;;5.45;3.92;;;8.90;99.90;;;;;;4939351;29;20212;-64
2022/11/25 17:51:45;;;;;;;7.57;5.38;;;8.90;99.90;;;;;;4939539;29;20232;-64
2022/11/25 17:54:11;;;;;;;6.07;4.30;;;8.90;99.90;;;;;;4938456;29;20216;-64
2022/11/25 17:56:38;;;;;;;5.10;3.95;;;8.90;99.90;;;;;;4939193;29;20424;-65
2022/11/25 17:59:10;;;;;;;7.40;4.43;;;8.90;99.90;;;;;;4938968;29;20255;-63
2022/11/25 18:01:35;;;;;;;7.10;4.60;;;8.90;99.90;;;;;;4938766;29;20629;-64
2022/11/25 18:04:34;;;;;;;6.43;3.23;;;8.90;99.90;;;;;;4938285;29;20288;-64
2022/11/25 18:07:00;;;;;;;6.68;4.65;;;8.90;99.90;;;;;;4931349;29;20201;-63
2022/11/25 18:09:26;;;;;;;4.93;3.50;;;9.00;99.90;;;;;;4939184;29;20185;-65
2022/11/25 18:11:55;;;;;;;5.73;3.87;;;9.00;99.90;;;;;;4937574;29;20529;-65
2022/11/25 18:14:30;;;;;;;5.75;3.75;;;8.90;99.90;;;;;;4938279;29;20243;-65
2022/11/25 18:17:00;;;;;;;3.42;2.90;;;8.90;99.90;;;;;;4938855;29;20176;-65
2022/11/25 18:19:25;;;;;;;4.32;3.92;;;8.90;99.90;;;;;;4938869;29;20177;-63
2022/11/25 18:21:51;;;;;;;8.17;3.07;;;8.90;99.90;;;;;;4937401;29;20244;-64
2022/11/25 18:24:17;;;;;;;3.70;2.90;;;8.90;99.90;;;;;;4937971;29;20628;-65
2022/11/25 18:26:49;;;;;;;3.77;3.33;;;8.90;99.90;;;;;;4938755;29;20674;-64
2022/11/25 18:29:24;;;;;;;5.28;3.28;;;8.80;99.90;;;;;;4938795;29;20177;-64
2022/11/25 18:31:52;;;;;;;7.72;3.90;;;8.80;99.90;;;;;;4937453;29;20185;-65
2022/11/25 18:34:17;;;;;;;3.65;3.20;;;8.90;99.90;;;;;;4937536;29;20220;-62
2022/11/25 18:36:43;;;;;;;3.27;2.97;;;8.90;99.90;;;;;;4938528;29;20177;-64